Shelby — WCV6157 — position and weather

sailwx.info

Track history (hours):
 
Tides and Currents Weather Stations Pressure Air Temp Water Temp Dewpoint Dewpoint Depression Visibility Wind Speed Wind Dir Waves Ship Positions

Shelby

Owner: WEEKS MARINE, INC., CRANFORD, NJ. More information available from US FCC via Universal Licensing System and Coast Guard Vessel Documentation Center.

Last reported at 2014-Oct-25 20:19 UTC. Time now 2014-Oct-25 21:13 UTC.
Position N 40°45' W 074°05'.

Length 22 m; draft 3.1 m.

Type: Tug. MMSI: 366939080.

Date/timePositionNaut miles runAvg speedWind from/ knotsBaromVisibWave heightAir tempDewpointWater temp
2014-Oct-25 20:19N 40°45' W 074°05'0 0.0
2014-Oct-25 19:31N 40°45' W 074°05'0 0.0
2014-Oct-25 13:31N 40°45' W 074°05'0 0.0
2014-Oct-25 11:19N 40°44' W 074°05'2 0.1
2014-Oct-24 17:33N 40°43' W 074°06'4 3.6
2014-Oct-24 16:28N 40°40' W 074°09'2 1.9
2014-Oct-24 15:33N 40°39' W 074°07'2 2.4
2014-Oct-24 14:31N 40°41' W 074°05'0 0.0
2014-Oct-24 13:31N 40°41' W 074°05'0 0.0
2014-Oct-24 12:31N 40°41' W 074°05'0 0.0
2014-Oct-24 11:28N 40°41' W 074°05'0 0.0
2014-Oct-24 10:31N 40°41' W 074°05'0 0.0
2014-Oct-24 09:31N 40°41' W 074°05'0 0.0
2014-Oct-24 08:31N 40°41' W 074°05'0 0.0
2014-Oct-24 07:31N 40°41' W 074°05'0 0.0
2014-Oct-24 06:31N 40°41' W 074°05'0 0.3
2014-Oct-24 05:33N 40°41' W 074°04'6 6.1
2014-Oct-24 04:32N 40°46' W 074°00'0 0.2
2014-Oct-24 03:32N 40°46' W 074°00'1 0.5
2014-Oct-24 02:33N 40°46' W 074°00'5 4.6
2014-Oct-24 01:33N 40°42' W 074°02'3 2.5
2014-Oct-24 00:33N 40°41' W 074°05'0 0.0
2014-Oct-23 23:33N 40°41' W 074°05'0 0.0
2014-Oct-23 22:31N 40°41' W 074°04'0 0.1
2014-Oct-23 21:34N 40°41' W 074°05'0 0.0
2014-Oct-23 20:34N 40°41' W 074°05'0 0.0
2014-Oct-23 19:34N 40°41' W 074°05'0 0.0
2014-Oct-23 18:33N 40°41' W 074°05'0 0.0
2014-Oct-23 17:33N 40°41' W 074°05'0 0.0
2014-Oct-23 16:32N 40°41' W 074°05'3 3.5
2014-Oct-23 15:34N 40°42' W 074°00'6 2.1
2014-Oct-23 12:31N 40°47' W 073°55'7 7.0
2014-Oct-23 11:33N 40°41' W 074°01'3 3.0
2014-Oct-23 10:31N 40°41' W 074°05'0 0.0
2014-Oct-23 09:31N 40°41' W 074°05'0 0.0
2014-Oct-23 08:31N 40°41' W 074°05'0 0.0
2014-Oct-23 07:28N 40°41' W 074°05'0 0.0
2014-Oct-23 06:31N 40°41' W 074°05'0 0.0
2014-Oct-23 05:31N 40°41' W 074°05'0 0.0
2014-Oct-23 04:31N 40°41' W 074°05'0 0.0
2014-Oct-23 03:31N 40°41' W 074°05'0 0.0
2014-Oct-23 02:31N 40°41' W 074°05'0 0.0
2014-Oct-23 01:31N 40°41' W 074°05'0 0.0
2014-Oct-23 00:31N 40°41' W 074°05'0 0.0
2014-Oct-22 23:31N 40°41' W 074°05'0 0.1
2014-Oct-22 22:33N 40°41' W 074°05'0 0.3
2014-Oct-22 21:33N 40°41' W 074°04'3 3.4
2014-Oct-22 20:33N 40°39' W 074°08'  
2014-Oct-19 22:33N 40°39' W 074°09'4 4.0
2014-Oct-19 21:33N 40°41' W 074°05'0 0.0
2014-Oct-19 20:30N 40°41' W 074°05'  
2014-Oct-17 14:22N 40°31' W 074°18'8 3.9
2014-Oct-17 12:19N 40°38' W 074°12'4 5.2
2014-Oct-17 11:28N 40°39' W 074°07'2 2.6
2014-Oct-17 10:32N 40°40' W 074°04'0 0.2
2014-Oct-17 09:16N 40°41' W 074°05'0 0.0
2014-Oct-17 08:19N 40°41' W 074°05'0 0.0
2014-Oct-17 07:31N 40°41' W 074°05'0 0.0
2014-Oct-17 06:31N 40°41' W 074°05'0 0.0
2014-Oct-17 05:31N 40°41' W 074°05'0 0.0
2014-Oct-17 04:31N 40°41' W 074°05'0 0.0
2014-Oct-17 03:31N 40°41' W 074°05'0 0.0
2014-Oct-17 02:31N 40°41' W 074°05'0 0.0
2014-Oct-17 01:31N 40°41' W 074°05'0 0.0
2014-Oct-17 00:31N 40°41' W 074°05'0 0.4
2014-Oct-16 23:27N 40°40' W 074°04'2 2.5
2014-Oct-16 22:33N 40°39' W 074°02'1 0.7
2014-Oct-16 21:33N 40°40' W 074°01'0 0.0
2014-Oct-16 20:33N 40°40' W 074°01'0 0.0
2014-Oct-16 19:33N 40°40' W 074°01'0 0.0
2014-Oct-16 18:33N 40°40' W 074°01'0 0.0
2014-Oct-16 17:33N 40°40' W 074°01'0 0.0
2014-Oct-16 16:33N 40°40' W 074°01'0 0.1
2014-Oct-16 15:33N 40°40' W 074°01'0 0.1
2014-Oct-16 14:33N 40°40' W 074°01'0 0.1
2014-Oct-16 13:31N 40°40' W 074°01'0 0.1
2014-Oct-16 12:26N 40°40' W 074°01'0 0.1
2014-Oct-16 10:12N 40°40' W 074°01'3 1.3
2014-Oct-16 08:04N 40°41' W 074°04'1 1.4
2014-Oct-16 07:33N 40°40' W 074°04'0 0.3
2014-Oct-16 06:06N 40°40' W 074°04'1 0.1
2014-Oct-16 00:29N 40°41' W 074°04'0 0.0
2014-Oct-15 22:16N 40°41' W 074°04'3 2.6
2014-Oct-15 21:14N 40°40' W 074°01'0 0.0
2014-Oct-15 20:32N 40°40' W 074°01'  
Track history (hours):
 
Tides and Currents Weather Stations Pressure Air Temp Water Temp Dewpoint Dewpoint Depression Visibility Wind Speed Wind Dir Waves Ship Positions

Shelby

Owner: WEEKS MARINE, INC., CRANFORD, NJ. More information available from US FCC via Universal Licensing System and Coast Guard Vessel Documentation Center.

Last reported at 2014-Oct-25 20:19 UTC. Time now 2014-Oct-25 21:13 UTC.
Position N 40°45' W 074°05'.

Length 22 m; draft 3.1 m.

Type: Tug. MMSI: 366939080.

Date/timePositionNaut miles runAvg speedWind from/ knotsBaromVisibWave heightAir tempDewpointWater temp
2014-Oct-25 20:19N 40°45' W 074°05'0 0.0
2014-Oct-25 19:31N 40°45' W 074°05'0 0.0
2014-Oct-25 13:31N 40°45' W 074°05'0 0.0
2014-Oct-25 11:19N 40°44' W 074°05'2 0.1
2014-Oct-24 17:33N 40°43' W 074°06'4 3.6
2014-Oct-24 16:28N 40°40' W 074°09'2 1.9
2014-Oct-24 15:33N 40°39' W 074°07'2 2.4
2014-Oct-24 14:31N 40°41' W 074°05'0 0.0
2014-Oct-24 13:31N 40°41' W 074°05'0 0.0
2014-Oct-24 12:31N 40°41' W 074°05'0 0.0
2014-Oct-24 11:28N 40°41' W 074°05'0 0.0
2014-Oct-24 10:31N 40°41' W 074°05'0 0.0
2014-Oct-24 09:31N 40°41' W 074°05'0 0.0
2014-Oct-24 08:31N 40°41' W 074°05'0 0.0
2014-Oct-24 07:31N 40°41' W 074°05'0 0.0
2014-Oct-24 06:31N 40°41' W 074°05'0 0.3
2014-Oct-24 05:33N 40°41' W 074°04'6 6.1
2014-Oct-24 04:32N 40°46' W 074°00'0 0.2
2014-Oct-24 03:32N 40°46' W 074°00'1 0.5
2014-Oct-24 02:33N 40°46' W 074°00'5 4.6
2014-Oct-24 01:33N 40°42' W 074°02'3 2.5
2014-Oct-24 00:33N 40°41' W 074°05'0 0.0
2014-Oct-23 23:33N 40°41' W 074°05'0 0.0
2014-Oct-23 22:31N 40°41' W 074°04'0 0.1
2014-Oct-23 21:34N 40°41' W 074°05'0 0.0
2014-Oct-23 20:34N 40°41' W 074°05'0 0.0
2014-Oct-23 19:34N 40°41' W 074°05'0 0.0
2014-Oct-23 18:33N 40°41' W 074°05'0 0.0
2014-Oct-23 17:33N 40°41' W 074°05'0 0.0
2014-Oct-23 16:32N 40°41' W 074°05'3 3.5
2014-Oct-23 15:34N 40°42' W 074°00'6 2.1
2014-Oct-23 12:31N 40°47' W 073°55'7 7.0
2014-Oct-23 11:33N 40°41' W 074°01'3 3.0
2014-Oct-23 10:31N 40°41' W 074°05'0 0.0
2014-Oct-23 09:31N 40°41' W 074°05'0 0.0
2014-Oct-23 08:31N 40°41' W 074°05'0 0.0
2014-Oct-23 07:28N 40°41' W 074°05'0 0.0
2014-Oct-23 06:31N 40°41' W 074°05'0 0.0
2014-Oct-23 05:31N 40°41' W 074°05'0 0.0
2014-Oct-23 04:31N 40°41' W 074°05'0 0.0
2014-Oct-23 03:31N 40°41' W 074°05'0 0.0
2014-Oct-23 02:31N 40°41' W 074°05'0 0.0
2014-Oct-23 01:31N 40°41' W 074°05'0 0.0
2014-Oct-23 00:31N 40°41' W 074°05'0 0.0
2014-Oct-22 23:31N 40°41' W 074°05'0 0.1
2014-Oct-22 22:33N 40°41' W 074°05'0 0.3
2014-Oct-22 21:33N 40°41' W 074°04'3 3.4
2014-Oct-22 20:33N 40°39' W 074°08'  
2014-Oct-19 22:33N 40°39' W 074°09'4 4.0
2014-Oct-19 21:33N 40°41' W 074°05'0 0.0
2014-Oct-19 20:30N 40°41' W 074°05'  
2014-Oct-17 14:22N 40°31' W 074°18'8 3.9
2014-Oct-17 12:19N 40°38' W 074°12'4 5.2
2014-Oct-17 11:28N 40°39' W 074°07'2 2.6
2014-Oct-17 10:32N 40°40' W 074°04'0 0.2
2014-Oct-17 09:16N 40°41' W 074°05'0 0.0
2014-Oct-17 08:19N 40°41' W 074°05'0 0.0
2014-Oct-17 07:31N 40°41' W 074°05'0 0.0
2014-Oct-17 06:31N 40°41' W 074°05'0 0.0
2014-Oct-17 05:31N 40°41' W 074°05'0 0.0
2014-Oct-17 04:31N 40°41' W 074°05'0 0.0
2014-Oct-17 03:31N 40°41' W 074°05'0 0.0
2014-Oct-17 02:31N 40°41' W 074°05'0 0.0
2014-Oct-17 01:31N 40°41' W 074°05'0 0.0
2014-Oct-17 00:31N 40°41' W 074°05'0 0.4
2014-Oct-16 23:27N 40°40' W 074°04'2 2.5
2014-Oct-16 22:33N 40°39' W 074°02'1 0.7
2014-Oct-16 21:33N 40°40' W 074°01'0 0.0
2014-Oct-16 20:33N 40°40' W 074°01'0 0.0
2014-Oct-16 19:33N 40°40' W 074°01'0 0.0
2014-Oct-16 18:33N 40°40' W 074°01'0 0.0
2014-Oct-16 17:33N 40°40' W 074°01'0 0.0
2014-Oct-16 16:33N 40°40' W 074°01'0 0.1
2014-Oct-16 15:33N 40°40' W 074°01'0 0.1
2014-Oct-16 14:33N 40°40' W 074°01'0 0.1
2014-Oct-16 13:31N 40°40' W 074°01'0 0.1
2014-Oct-16 12:26N 40°40' W 074°01'0 0.1
2014-Oct-16 10:12N 40°40' W 074°01'3 1.3
2014-Oct-16 08:04N 40°41' W 074°04'1 1.4
2014-Oct-16 07:33N 40°40' W 074°04'0 0.3
2014-Oct-16 06:06N 40°40' W 074°04'1 0.1
2014-Oct-16 00:29N 40°41' W 074°04'0 0.0
2014-Oct-15 22:16N 40°41' W 074°04'3 2.6
2014-Oct-15 21:14N 40°40' W 074°01'0 0.0
2014-Oct-15 20:32N 40°40' W 074°01'  

Dump ship's entire track history